Weather at Faro Airport

Public forecast

Using degrees Celsius for public forecast. Weather courtesy of forecast.io.

Current aviation weather report (METAR) for Faro Airport

Retrieved 2021/08/04 06:00 UTC (19 minutes ago):

LPFR 040600Z 33011KT CAVOK 24/15 Q1016

Aviation forecast (TAF) for Faro Airport

Retrieved 2021/08/04 06:18 UTC (54 seconds ago):

TAF LPFR 040500Z 0406/0506 01005KT CAVOK BECMG 0409/0411 19007KT BECMG 0413/0415 25015KT BECMG 0417/0419 33010KT